sensor_id;sensor_type;location;lat;lon;timestamp;P1;durP1;ratioP1;P2;durP2;ratioP2
41865;SDS011;27539;43.222;27.558;2023-04-25T00:01:20;77.85;;;40.72;;
41865;SDS011;27539;43.222;27.558;2023-04-25T00:03:47;58.40;;;33.95;;
41865;SDS011;27539;43.222;27.558;2023-04-25T00:06:13;68.13;;;26.83;;
41865;SDS011;27539;43.222;27.558;2023-04-25T00:08:38;32.45;;;17.35;;
41865;SDS011;27539;43.222;27.558;2023-04-25T00:11:04;15.18;;;11.40;;
41865;SDS011;27539;43.222;27.558;2023-04-25T00:13:30;5.15;;;4.65;;
41865;SDS011;27539;43.222;27.558;2023-04-25T00:15:55;18.67;;;3.95;;
41865;SDS011;27539;43.222;27.558;2023-04-25T00:18:25;3.60;;;3.13;;
41865;SDS011;27539;43.222;27.558;2023-04-25T00:20:53;14.02;;;4.18;;
41865;SDS011;27539;43.222;27.558;2023-04-25T00:23:19;9.10;;;3.40;;
41865;SDS011;27539;43.222;27.558;2023-04-25T00:25:45;4.38;;;3.22;;
41865;SDS011;27539;43.222;27.558;2023-04-25T00:28:14;21.73;;;3.95;;
41865;SDS011;27539;43.222;27.558;2023-04-25T00:30:40;10.32;;;4.63;;
41865;SDS011;27539;43.222;27.558;2023-04-25T00:33:06;6.28;;;3.45;;
41865;SDS011;27539;43.222;27.558;2023-04-25T00:35:32;5.17;;;3.67;;
41865;SDS011;27539;43.222;27.558;2023-04-25T00:37:58;9.27;;;5.10;;
41865;SDS011;27539;43.222;27.558;2023-04-25T00:40:24;6.50;;;4.53;;
41865;SDS011;27539;43.222;27.558;2023-04-25T00:42:50;12.10;;;8.15;;
41865;SDS011;27539;43.222;27.558;2023-04-25T00:45:17;7.28;;;5.32;;
41865;SDS011;27539;43.222;27.558;2023-04-25T00:47:43;10.48;;;7.00;;
41865;SDS011;27539;43.222;27.558;2023-04-25T00:50:09;13.27;;;6.60;;
41865;SDS011;27539;43.222;27.558;2023-04-25T00:52:36;11.82;;;4.72;;
41865;SDS011;27539;43.222;27.558;2023-04-25T00:55:06;14.80;;;5.80;;
41865;SDS011;27539;43.222;27.558;2023-04-25T00:57:33;6.97;;;4.60;;
41865;SDS011;27539;43.222;27.558;2023-04-25T00:59:59;12.68;;;6.32;;
41865;SDS011;27539;43.222;27.558;2023-04-25T01:02:25;9.15;;;5.93;;
41865;SDS011;27539;43.222;27.558;2023-04-25T01:04:50;7.30;;;3.80;;
41865;SDS011;27539;43.222;27.558;2023-04-25T01:07:16;13.43;;;5.18;;
41865;SDS011;27539;43.222;27.558;2023-04-25T01:09:42;16.25;;;6.05;;
41865;SDS011;27539;43.222;27.558;2023-04-25T01:12:07;3.33;;;3.00;;
41865;SDS011;27539;43.222;27.558;2023-04-25T01:14:33;3.47;;;2.03;;
41865;SDS011;27539;43.222;27.558;2023-04-25T01:16:58;2.53;;;1.70;;
41865;SDS011;27539;43.222;27.558;2023-04-25T01:19:24;2.22;;;1.73;;
41865;SDS011;27539;43.222;27.558;2023-04-25T01:21:50;1.87;;;1.77;;
41865;SDS011;27539;43.222;27.558;2023-04-25T01:24:16;5.88;;;2.22;;
41865;SDS011;27539;43.222;27.558;2023-04-25T01:26:42;6.07;;;2.55;;
41865;SDS011;27539;43.222;27.558;2023-04-25T01:29:15;5.97;;;2.45;;
41865;SDS011;27539;43.222;27.558;2023-04-25T01:31:42;3.75;;;2.50;;
41865;SDS011;27539;43.222;27.558;2023-04-25T01:34:09;6.45;;;3.65;;
41865;SDS011;27539;43.222;27.558;2023-04-25T01:36:35;4.40;;;2.03;;
41865;SDS011;27539;43.222;27.558;2023-04-25T01:39:00;4.40;;;3.38;;
41865;SDS011;27539;43.222;27.558;2023-04-25T01:41:26;2.50;;;2.28;;
41865;SDS011;27539;43.222;27.558;2023-04-25T01:43:53;2.55;;;2.13;;
41865;SDS011;27539;43.222;27.558;2023-04-25T01:46:18;3.60;;;2.75;;
41865;SDS011;27539;43.222;27.558;2023-04-25T01:48:44;7.07;;;3.28;;
41865;SDS011;27539;43.222;27.558;2023-04-25T01:51:10;15.82;;;5.10;;
41865;SDS011;27539;43.222;27.558;2023-04-25T01:53:36;3.83;;;3.53;;
41865;SDS011;27539;43.222;27.558;2023-04-25T01:56:02;3.07;;;2.77;;
41865;SDS011;27539;43.222;27.558;2023-04-25T01:58:28;5.55;;;3.42;;
41865;SDS011;27539;43.222;27.558;2023-04-25T02:00:53;4.10;;;2.08;;
41865;SDS011;27539;43.222;27.558;2023-04-25T02:03:19;1.58;;;1.48;;
41865;SDS011;27539;43.222;27.558;2023-04-25T02:05:44;2.65;;;1.08;;
41865;SDS011;27539;43.222;27.558;2023-04-25T02:08:10;1.48;;;1.38;;
41865;SDS011;27539;43.222;27.558;2023-04-25T02:10:35;1.88;;;1.48;;
41865;SDS011;27539;43.222;27.558;2023-04-25T02:13:01;16.83;;;1.73;;
41865;SDS011;27539;43.222;27.558;2023-04-25T02:15:27;9.75;;;2.55;;
41865;SDS011;27539;43.222;27.558;2023-04-25T02:17:53;4.20;;;2.35;;
41865;SDS011;27539;43.222;27.558;2023-04-25T02:20:21;3.17;;;1.67;;
41865;SDS011;27539;43.222;27.558;2023-04-25T02:22:48;10.10;;;4.03;;
41865;SDS011;27539;43.222;27.558;2023-04-25T02:25:14;3.33;;;2.95;;
41865;SDS011;27539;43.222;27.558;2023-04-25T02:30:06;3.53;;;3.17;;
41865;SDS011;27539;43.222;27.558;2023-04-25T02:32:32;4.53;;;4.10;;
41865;SDS011;27539;43.222;27.558;2023-04-25T02:34:59;9.68;;;5.38;;
41865;SDS011;27539;43.222;27.558;2023-04-25T02:37:29;11.93;;;5.03;;
41865;SDS011;27539;43.222;27.558;2023-04-25T02:39:55;10.18;;;4.97;;
41865;SDS011;27539;43.222;27.558;2023-04-25T02:42:20;16.67;;;4.00;;
41865;SDS011;27539;43.222;27.558;2023-04-25T02:44:46;5.05;;;3.75;;
41865;SDS011;27539;43.222;27.558;2023-04-25T02:47:11;6.88;;;4.07;;
41865;SDS011;27539;43.222;27.558;2023-04-25T02:49:37;7.10;;;4.55;;
41865;SDS011;27539;43.222;27.558;2023-04-25T02:52:02;9.98;;;3.53;;
41865;SDS011;27539;43.222;27.558;2023-04-25T02:54:28;6.35;;;3.42;;
41865;SDS011;27539;43.222;27.558;2023-04-25T02:56:53;4.82;;;3.42;;
41865;SDS011;27539;43.222;27.558;2023-04-25T02:59:18;7.35;;;5.15;;
41865;SDS011;27539;43.222;27.558;2023-04-25T03:01:44;3.95;;;3.28;;
41865;SDS011;27539;43.222;27.558;2023-04-25T03:04:10;8.93;;;4.55;;
41865;SDS011;27539;43.222;27.558;2023-04-25T03:06:35;13.13;;;4.82;;
41865;SDS011;27539;43.222;27.558;2023-04-25T03:09:01;8.30;;;5.22;;
41865;SDS011;27539;43.222;27.558;2023-04-25T03:11:26;9.18;;;4.35;;
41865;SDS011;27539;43.222;27.558;2023-04-25T03:13:52;5.72;;;4.60;;
41865;SDS011;27539;43.222;27.558;2023-04-25T03:16:17;13.68;;;4.03;;
41865;SDS011;27539;43.222;27.558;2023-04-25T03:18:43;4.72;;;3.33;;
41865;SDS011;27539;43.222;27.558;2023-04-25T03:21:08;6.82;;;4.35;;
41865;SDS011;27539;43.222;27.558;2023-04-25T03:23:34;5.88;;;5.30;;
41865;SDS011;27539;43.222;27.558;2023-04-25T03:25:59;6.80;;;3.38;;
41865;SDS011;27539;43.222;27.558;2023-04-25T03:28:25;10.57;;;3.97;;
41865;SDS011;27539;43.222;27.558;2023-04-25T03:30:50;4.10;;;3.08;;
41865;SDS011;27539;43.222;27.558;2023-04-25T03:33:16;8.88;;;4.47;;
41865;SDS011;27539;43.222;27.558;2023-04-25T03:35:41;8.65;;;4.38;;
41865;SDS011;27539;43.222;27.558;2023-04-25T03:38:07;9.50;;;5.45;;
41865;SDS011;27539;43.222;27.558;2023-04-25T03:40:33;3.53;;;2.75;;
41865;SDS011;27539;43.222;27.558;2023-04-25T03:42:59;7.63;;;2.72;;
41865;SDS011;27539;43.222;27.558;2023-04-25T03:45:24;4.97;;;2.42;;
41865;SDS011;27539;43.222;27.558;2023-04-25T03:47:50;11.25;;;3.55;;
41865;SDS011;27539;43.222;27.558;2023-04-25T03:50:15;17.02;;;4.07;;
41865;SDS011;27539;43.222;27.558;2023-04-25T03:52:41;9.70;;;3.22;;
41865;SDS011;27539;43.222;27.558;2023-04-25T03:55:07;3.77;;;2.53;;
41865;SDS011;27539;43.222;27.558;2023-04-25T03:57:33;3.72;;;2.90;;
41865;SDS011;27539;43.222;27.558;2023-04-25T03:59:58;3.00;;;2.03;;
41865;SDS011;27539;43.222;27.558;2023-04-25T04:02:24;2.15;;;1.38;;
41865;SDS011;27539;43.222;27.558;2023-04-25T04:04:49;2.97;;;2.20;;
41865;SDS011;27539;43.222;27.558;2023-04-25T04:07:15;6.80;;;3.28;;
41865;SDS011;27539;43.222;27.558;2023-04-25T04:09:41;6.63;;;4.07;;
41865;SDS011;27539;43.222;27.558;2023-04-25T04:12:06;8.35;;;3.95;;
41865;SDS011;27539;43.222;27.558;2023-04-25T04:14:31;13.07;;;2.70;;
41865;SDS011;27539;43.222;27.558;2023-04-25T04:16:57;8.98;;;4.55;;
41865;SDS011;27539;43.222;27.558;2023-04-25T04:19:22;6.32;;;3.83;;
41865;SDS011;27539;43.222;27.558;2023-04-25T04:21:48;5.03;;;3.97;;
41865;SDS011;27539;43.222;27.558;2023-04-25T04:24:13;6.47;;;3.20;;
41865;SDS011;27539;43.222;27.558;2023-04-25T04:26:39;6.32;;;4.25;;
41865;SDS011;27539;43.222;27.558;2023-04-25T04:29:05;4.65;;;3.42;;
41865;SDS011;27539;43.222;27.558;2023-04-25T04:31:32;4.25;;;3.85;;
41865;SDS011;27539;43.222;27.558;2023-04-25T04:33:57;8.73;;;2.97;;
41865;SDS011;27539;43.222;27.558;2023-04-25T04:36:23;11.63;;;4.57;;
41865;SDS011;27539;43.222;27.558;2023-04-25T04:38:51;4.45;;;4.03;;
41865;SDS011;27539;43.222;27.558;2023-04-25T04:41:17;9.48;;;5.65;;
41865;SDS011;27539;43.222;27.558;2023-04-25T04:43:44;6.60;;;3.92;;
41865;SDS011;27539;43.222;27.558;2023-04-25T04:46:10;4.25;;;3.60;;
41865;SDS011;27539;43.222;27.558;2023-04-25T04:48:35;6.00;;;4.75;;
41865;SDS011;27539;43.222;27.558;2023-04-25T04:51:02;4.22;;;3.20;;
41865;SDS011;27539;43.222;27.558;2023-04-25T04:53:28;19.88;;;6.28;;
41865;SDS011;27539;43.222;27.558;2023-04-25T04:55:53;10.07;;;5.18;;
41865;SDS011;27539;43.222;27.558;2023-04-25T04:58:19;10.27;;;5.07;;
41865;SDS011;27539;43.222;27.558;2023-04-25T05:00:45;10.70;;;6.15;;
41865;SDS011;27539;43.222;27.558;2023-04-25T05:03:11;16.02;;;6.60;;
41865;SDS011;27539;43.222;27.558;2023-04-25T05:05:36;10.00;;;6.68;;
41865;SDS011;27539;43.222;27.558;2023-04-25T05:08:05;16.55;;;5.55;;
41865;SDS011;27539;43.222;27.558;2023-04-25T05:10:31;9.40;;;5.40;;
41865;SDS011;27539;43.222;27.558;2023-04-25T05:12:56;7.18;;;4.78;;
41865;SDS011;27539;43.222;27.558;2023-04-25T05:15:22;9.65;;;4.70;;
41865;SDS011;27539;43.222;27.558;2023-04-25T05:17:47;7.68;;;4.15;;
41865;SDS011;27539;43.222;27.558;2023-04-25T05:20:13;3.05;;;1.50;;
41865;SDS011;27539;43.222;27.558;2023-04-25T05:22:39;1.58;;;1.48;;
41865;SDS011;27539;43.222;27.558;2023-04-25T05:25:06;6.70;;;3.35;;
41865;SDS011;27539;43.222;27.558;2023-04-25T05:27:33;1.35;;;1.23;;
41865;SDS011;27539;43.222;27.558;2023-04-25T05:29:58;1.98;;;1.70;;
41865;SDS011;27539;43.222;27.558;2023-04-25T05:32:24;1.20;;;1.10;;
41865;SDS011;27539;43.222;27.558;2023-04-25T05:34:50;2.63;;;1.63;;
41865;SDS011;27539;43.222;27.558;2023-04-25T05:37:15;1.92;;;1.52;;
41865;SDS011;27539;43.222;27.558;2023-04-25T05:39:41;1.85;;;1.38;;
41865;SDS011;27539;43.222;27.558;2023-04-25T05:42:06;4.18;;;1.92;;
41865;SDS011;27539;43.222;27.558;2023-04-25T05:44:32;6.78;;;2.72;;
41865;SDS011;27539;43.222;27.558;2023-04-25T05:46:57;1.73;;;1.63;;
41865;SDS011;27539;43.222;27.558;2023-04-25T05:49:23;2.92;;;2.15;;
41865;SDS011;27539;43.222;27.558;2023-04-25T05:51:48;3.72;;;2.33;;
41865;SDS011;27539;43.222;27.558;2023-04-25T05:54:13;5.10;;;2.70;;
41865;SDS011;27539;43.222;27.558;2023-04-25T05:56:39;8.18;;;4.45;;
41865;SDS011;27539;43.222;27.558;2023-04-25T05:59:04;17.13;;;12.50;;
41865;SDS011;27539;43.222;27.558;2023-04-25T06:01:31;9.00;;;3.90;;
41865;SDS011;27539;43.222;27.558;2023-04-25T06:03:56;3.47;;;3.10;;
41865;SDS011;27539;43.222;27.558;2023-04-25T06:06:21;7.38;;;2.17;;
41865;SDS011;27539;43.222;27.558;2023-04-25T06:08:47;1.75;;;1.65;;
41865;SDS011;27539;43.222;27.558;2023-04-25T06:11:12;2.03;;;1.45;;
41865;SDS011;27539;43.222;27.558;2023-04-25T06:13:38;2.08;;;1.75;;
41865;SDS011;27539;43.222;27.558;2023-04-25T06:16:03;0.60;;;0.60;;
41865;SDS011;27539;43.222;27.558;2023-04-25T06:18:29;1.17;;;1.08;;
41865;SDS011;27539;43.222;27.558;2023-04-25T06:20:55;1.08;;;0.90;;
41865;SDS011;27539;43.222;27.558;2023-04-25T06:23:20;3.20;;;1.90;;
41865;SDS011;27539;43.222;27.558;2023-04-25T06:25:46;0.52;;;0.52;;
41865;SDS011;27539;43.222;27.558;2023-04-25T06:28:11;1.13;;;0.75;;
41865;SDS011;27539;43.222;27.558;2023-04-25T06:30:37;0.82;;;0.60;;
41865;SDS011;27539;43.222;27.558;2023-04-25T06:33:03;1.25;;;0.98;;
41865;SDS011;27539;43.222;27.558;2023-04-25T06:35:28;0.43;;;0.43;;
41865;SDS011;27539;43.222;27.558;2023-04-25T06:37:54;8.30;;;1.73;;
41865;SDS011;27539;43.222;27.558;2023-04-25T06:40:19;1.45;;;1.00;;
41865;SDS011;27539;43.222;27.558;2023-04-25T06:42:45;0.98;;;0.88;;
41865;SDS011;27539;43.222;27.558;2023-04-25T06:45:10;3.20;;;0.95;;
41865;SDS011;27539;43.222;27.558;2023-04-25T06:47:36;0.82;;;0.77;;
41865;SDS011;27539;43.222;27.558;2023-04-25T06:50:01;0.65;;;0.65;;
41865;SDS011;27539;43.222;27.558;2023-04-25T06:52:27;2.08;;;0.80;;
41865;SDS011;27539;43.222;27.558;2023-04-25T06:54:52;1.67;;;1.30;;
41865;SDS011;27539;43.222;27.558;2023-04-25T06:57:17;2.53;;;1.17;;
41865;SDS011;27539;43.222;27.558;2023-04-25T06:59:43;6.57;;;2.05;;
41865;SDS011;27539;43.222;27.558;2023-04-25T07:02:08;1.33;;;1.23;;
41865;SDS011;27539;43.222;27.558;2023-04-25T07:04:34;4.47;;;1.45;;
41865;SDS011;27539;43.222;27.558;2023-04-25T07:06:59;0.60;;;0.60;;
41865;SDS011;27539;43.222;27.558;2023-04-25T07:09:27;0.73;;;0.45;;
41865;SDS011;27539;43.222;27.558;2023-04-25T07:11:53;2.15;;;1.17;;
41865;SDS011;27539;43.222;27.558;2023-04-25T07:14:18;1.85;;;0.75;;
41865;SDS011;27539;43.222;27.558;2023-04-25T07:16:44;1.17;;;1.05;;
41865;SDS011;27539;43.222;27.558;2023-04-25T07:19:09;1.08;;;0.85;;
41865;SDS011;27539;43.222;27.558;2023-04-25T07:21:35;1.02;;;0.75;;
41865;SDS011;27539;43.222;27.558;2023-04-25T07:24:01;0.50;;;0.50;;
41865;SDS011;27539;43.222;27.558;2023-04-25T07:26:27;0.80;;;0.65;;
41865;SDS011;27539;43.222;27.558;2023-04-25T07:28:52;3.72;;;1.08;;
41865;SDS011;27539;43.222;27.558;2023-04-25T07:31:19;1.20;;;1.10;;
41865;SDS011;27539;43.222;27.558;2023-04-25T07:33:45;0.95;;;0.95;;
41865;SDS011;27539;43.222;27.558;2023-04-25T07:36:10;0.70;;;0.70;;
41865;SDS011;27539;43.222;27.558;2023-04-25T07:38:37;0.77;;;0.70;;
41865;SDS011;27539;43.222;27.558;2023-04-25T07:41:03;2.97;;;1.00;;
41865;SDS011;27539;43.222;27.558;2023-04-25T07:43:29;1.08;;;1.05;;
41865;SDS011;27539;43.222;27.558;2023-04-25T07:45:54;0.40;;;0.40;;
41865;SDS011;27539;43.222;27.558;2023-04-25T07:48:19;2.00;;;0.77;;
41865;SDS011;27539;43.222;27.558;2023-04-25T07:50:45;1.10;;;0.60;;
41865;SDS011;27539;43.222;27.558;2023-04-25T07:53:10;0.77;;;0.77;;
41865;SDS011;27539;43.222;27.558;2023-04-25T07:55:36;0.40;;;0.40;;
41865;SDS011;27539;43.222;27.558;2023-04-25T07:58:05;1.30;;;1.20;;
41865;SDS011;27539;43.222;27.558;2023-04-25T08:00:31;0.95;;;0.70;;
41865;SDS011;27539;43.222;27.558;2023-04-25T08:02:57;2.63;;;0.60;;
41865;SDS011;27539;43.222;27.558;2023-04-25T08:05:22;3.72;;;1.15;;
41865;SDS011;27539;43.222;27.558;2023-04-25T08:07:48;3.55;;;1.13;;
41865;SDS011;27539;43.222;27.558;2023-04-25T08:10:13;3.00;;;0.73;;
41865;SDS011;27539;43.222;27.558;2023-04-25T08:12:39;0.30;;;0.30;;
41865;SDS011;27539;43.222;27.558;2023-04-25T08:15:05;0.60;;;0.60;;
41865;SDS011;27539;43.222;27.558;2023-04-25T08:17:31;3.53;;;1.00;;
41865;SDS011;27539;43.222;27.558;2023-04-25T08:19:56;0.60;;;0.60;;
41865;SDS011;27539;43.222;27.558;2023-04-25T08:22:22;1.40;;;0.77;;
41865;SDS011;27539;43.222;27.558;2023-04-25T08:24:48;1.00;;;0.80;;
41865;SDS011;27539;43.222;27.558;2023-04-25T08:27:13;0.82;;;0.82;;
41865;SDS011;27539;43.222;27.558;2023-04-25T08:29:39;0.50;;;0.50;;
41865;SDS011;27539;43.222;27.558;2023-04-25T08:32:04;0.90;;;0.85;;
41865;SDS011;27539;43.222;27.558;2023-04-25T08:34:30;3.03;;;1.23;;
41865;SDS011;27539;43.222;27.558;2023-04-25T08:36:55;0.90;;;0.90;;
41865;SDS011;27539;43.222;27.558;2023-04-25T08:39:20;6.25;;;4.55;;
41865;SDS011;27539;43.222;27.558;2023-04-25T08:41:46;1.50;;;0.80;;
41865;SDS011;27539;43.222;27.558;2023-04-25T08:44:12;1.07;;;0.50;;
41865;SDS011;27539;43.222;27.558;2023-04-25T08:46:38;1.30;;;0.95;;
41865;SDS011;27539;43.222;27.558;2023-04-25T08:49:08;0.82;;;0.82;;
41865;SDS011;27539;43.222;27.558;2023-04-25T08:51:45;0.73;;;0.68;;
41865;SDS011;27539;43.222;27.558;2023-04-25T08:54:12;0.60;;;0.60;;
41865;SDS011;27539;43.222;27.558;2023-04-25T08:57:01;0.70;;;0.50;;
41865;SDS011;27539;43.222;27.558;2023-04-25T08:59:29;1.15;;;0.75;;
41865;SDS011;27539;43.222;27.558;2023-04-25T09:01:55;1.73;;;1.08;;
41865;SDS011;27539;43.222;27.558;2023-04-25T09:04:20;0.80;;;0.80;;
41865;SDS011;27539;43.222;27.558;2023-04-25T09:06:46;0.65;;;0.60;;
41865;SDS011;27539;43.222;27.558;2023-04-25T09:09:13;1.48;;;1.17;;
41865;SDS011;27539;43.222;27.558;2023-04-25T09:11:39;1.92;;;1.33;;
41865;SDS011;27539;43.222;27.558;2023-04-25T09:14:18;0.77;;;0.77;;
41865;SDS011;27539;43.222;27.558;2023-04-25T09:19:29;4.78;;;0.93;;
41865;SDS011;27539;43.222;27.558;2023-04-25T09:22:04;1.23;;;1.00;;
41865;SDS011;27539;43.222;27.558;2023-04-25T09:24:40;2.00;;;0.87;;
41865;SDS011;27539;43.222;27.558;2023-04-25T09:27:09;0.60;;;0.60;;
41865;SDS011;27539;43.222;27.558;2023-04-25T09:29:36;0.43;;;0.43;;
41865;SDS011;27539;43.222;27.558;2023-04-25T09:32:13;1.05;;;0.77;;
41865;SDS011;27539;43.222;27.558;2023-04-25T09:34:42;0.57;;;0.55;;
41865;SDS011;27539;43.222;27.558;2023-04-25T09:37:09;2.33;;;0.90;;
41865;SDS011;27539;43.222;27.558;2023-04-25T09:39:38;0.77;;;0.63;;
41865;SDS011;27539;43.222;27.558;2023-04-25T09:42:04;0.70;;;0.70;;
41865;SDS011;27539;43.222;27.558;2023-04-25T09:44:30;2.08;;;1.25;;
41865;SDS011;27539;43.222;27.558;2023-04-25T09:46:56;2.60;;;0.82;;
41865;SDS011;27539;43.222;27.558;2023-04-25T09:49:22;1.23;;;1.10;;
41865;SDS011;27539;43.222;27.558;2023-04-25T09:51:54;0.45;;;0.43;;
41865;SDS011;27539;43.222;27.558;2023-04-25T09:54:21;21.02;;;6.15;;
41865;SDS011;27539;43.222;27.558;2023-04-25T09:56:46;5.37;;;1.30;;
41865;SDS011;27539;43.222;27.558;2023-04-25T09:59:13;1.92;;;0.73;;
41865;SDS011;27539;43.222;27.558;2023-04-25T10:01:40;0.68;;;0.68;;
41865;SDS011;27539;43.222;27.558;2023-04-25T10:04:06;0.43;;;0.43;;
41865;SDS011;27539;43.222;27.558;2023-04-25T10:06:35;0.32;;;0.32;;
41865;SDS011;27539;43.222;27.558;2023-04-25T10:09:03;0.50;;;0.50;;
41865;SDS011;27539;43.222;27.558;2023-04-25T10:11:30;0.20;;;0.20;;
41865;SDS011;27539;43.222;27.558;2023-04-25T10:13:56;0.57;;;0.50;;
41865;SDS011;27539;43.222;27.558;2023-04-25T10:16:22;0.60;;;0.60;;
41865;SDS011;27539;43.222;27.558;2023-04-25T10:18:49;0.40;;;0.40;;
41865;SDS011;27539;43.222;27.558;2023-04-25T10:21:16;0.57;;;0.57;;
41865;SDS011;27539;43.222;27.558;2023-04-25T10:23:42;0.50;;;0.50;;
41865;SDS011;27539;43.222;27.558;2023-04-25T10:26:09;1.05;;;0.30;;
41865;SDS011;27539;43.222;27.558;2023-04-25T10:31:38;1.85;;;0.60;;
41865;SDS011;27539;43.222;27.558;2023-04-25T10:34:10;1.13;;;0.50;;
41865;SDS011;27539;43.222;27.558;2023-04-25T10:36:36;0.30;;;0.30;;
41865;SDS011;27539;43.222;27.558;2023-04-25T10:39:03;0.70;;;0.50;;
41865;SDS011;27539;43.222;27.558;2023-04-25T10:41:46;0.45;;;0.38;;
41865;SDS011;27539;43.222;27.558;2023-04-25T10:44:13;0.65;;;0.20;;
41865;SDS011;27539;43.222;27.558;2023-04-25T10:46:39;0.43;;;0.43;;
41865;SDS011;27539;43.222;27.558;2023-04-25T10:49:05;0.80;;;0.80;;
41865;SDS011;27539;43.222;27.558;2023-04-25T10:51:33;1.42;;;1.33;;
41865;SDS011;27539;43.222;27.558;2023-04-25T10:54:01;0.50;;;0.50;;
41865;SDS011;27539;43.222;27.558;2023-04-25T10:56:32;0.17;;;0.17;;
41865;SDS011;27539;43.222;27.558;2023-04-25T10:59:15;0.20;;;0.20;;
41865;SDS011;27539;43.222;27.558;2023-04-25T11:01:43;0.57;;;0.40;;
41865;SDS011;27539;43.222;27.558;2023-04-25T11:09:38;0.50;;;0.50;;
41865;SDS011;27539;43.222;27.558;2023-04-25T11:12:06;0.55;;;0.35;;
41865;SDS011;27539;43.222;27.558;2023-04-25T11:14:33;0.47;;;0.47;;
41865;SDS011;27539;43.222;27.558;2023-04-25T11:16:59;0.93;;;0.87;;
41865;SDS011;27539;43.222;27.558;2023-04-25T11:19:26;0.47;;;0.43;;
41865;SDS011;27539;43.222;27.558;2023-04-25T11:21:56;0.30;;;0.30;;
41865;SDS011;27539;43.222;27.558;2023-04-25T11:24:29;0.75;;;0.75;;
41865;SDS011;27539;43.222;27.558;2023-04-25T11:26:56;0.80;;;0.75;;
41865;SDS011;27539;43.222;27.558;2023-04-25T11:29:23;0.77;;;0.63;;
41865;SDS011;27539;43.222;27.558;2023-04-25T11:31:51;0.55;;;0.47;;
41865;SDS011;27539;43.222;27.558;2023-04-25T11:34:17;1.95;;;1.10;;
41865;SDS011;27539;43.222;27.558;2023-04-25T11:36:44;0.70;;;0.40;;
41865;SDS011;27539;43.222;27.558;2023-04-25T11:39:10;0.38;;;0.38;;
41865;SDS011;27539;43.222;27.558;2023-04-25T11:41:37;0.60;;;0.60;;
41865;SDS011;27539;43.222;27.558;2023-04-25T11:44:03;0.35;;;0.30;;
41865;SDS011;27539;43.222;27.558;2023-04-25T11:46:29;1.85;;;0.47;;
41865;SDS011;27539;43.222;27.558;2023-04-25T11:48:55;1.03;;;0.93;;
41865;SDS011;27539;43.222;27.558;2023-04-25T11:51:21;0.50;;;0.50;;
41865;SDS011;27539;43.222;27.558;2023-04-25T11:53:46;0.43;;;0.37;;
41865;SDS011;27539;43.222;27.558;2023-04-25T11:56:12;4.10;;;0.40;;
41865;SDS011;27539;43.222;27.558;2023-04-25T11:58:53;6.00;;;0.60;;
41865;SDS011;27539;43.222;27.558;2023-04-25T12:01:29;1.00;;;0.73;;
41865;SDS011;27539;43.222;27.558;2023-04-25T12:04:09;0.88;;;0.57;;
41865;SDS011;27539;43.222;27.558;2023-04-25T12:06:39;0.52;;;0.52;;
41865;SDS011;27539;43.222;27.558;2023-04-25T12:11:40;0.47;;;0.40;;
41865;SDS011;27539;43.222;27.558;2023-04-25T12:14:28;0.50;;;0.50;;
41865;SDS011;27539;43.222;27.558;2023-04-25T12:16:59;0.45;;;0.45;;
41865;SDS011;27539;43.222;27.558;2023-04-25T12:19:26;3.10;;;1.00;;
41865;SDS011;27539;43.222;27.558;2023-04-25T12:21:56;0.60;;;0.60;;
41865;SDS011;27539;43.222;27.558;2023-04-25T12:24:22;1.07;;;0.97;;
41865;SDS011;27539;43.222;27.558;2023-04-25T12:29:30;0.98;;;0.90;;
41865;SDS011;27539;43.222;27.558;2023-04-25T12:31:57;0.50;;;0.50;;
41865;SDS011;27539;43.222;27.558;2023-04-25T12:34:23;1.63;;;0.80;;
41865;SDS011;27539;43.222;27.558;2023-04-25T12:36:49;0.52;;;0.52;;
41865;SDS011;27539;43.222;27.558;2023-04-25T12:41:42;0.63;;;0.63;;
41865;SDS011;27539;43.222;27.558;2023-04-25T12:44:07;1.60;;;0.68;;
41865;SDS011;27539;43.222;27.558;2023-04-25T12:46:33;2.22;;;0.80;;
41865;SDS011;27539;43.222;27.558;2023-04-25T12:48:58;0.50;;;0.50;;
41865;SDS011;27539;43.222;27.558;2023-04-25T12:51:25;1.13;;;0.57;;
41865;SDS011;27539;43.222;27.558;2023-04-25T12:53:52;1.10;;;1.00;;
41865;SDS011;27539;43.222;27.558;2023-04-25T12:56:18;0.40;;;0.40;;
41865;SDS011;27539;43.222;27.558;2023-04-25T12:58:44;0.50;;;0.50;;
41865;SDS011;27539;43.222;27.558;2023-04-25T13:01:09;1.65;;;1.13;;
41865;SDS011;27539;43.222;27.558;2023-04-25T13:03:35;0.50;;;0.50;;
41865;SDS011;27539;43.222;27.558;2023-04-25T13:06:00;0.57;;;0.40;;
41865;SDS011;27539;43.222;27.558;2023-04-25T13:08:26;0.73;;;0.73;;
41865;SDS011;27539;43.222;27.558;2023-04-25T13:10:51;0.50;;;0.40;;
41865;SDS011;27539;43.222;27.558;2023-04-25T13:13:17;0.90;;;0.73;;
41865;SDS011;27539;43.222;27.558;2023-04-25T13:15:42;0.22;;;0.22;;
41865;SDS011;27539;43.222;27.558;2023-04-25T13:18:08;0.55;;;0.55;;
41865;SDS011;27539;43.222;27.558;2023-04-25T13:20:33;0.20;;;0.20;;
41865;SDS011;27539;43.222;27.558;2023-04-25T13:22:59;1.80;;;0.93;;
41865;SDS011;27539;43.222;27.558;2023-04-25T13:25:24;2.72;;;1.17;;
41865;SDS011;27539;43.222;27.558;2023-04-25T13:27:50;2.35;;;1.25;;
41865;SDS011;27539;43.222;27.558;2023-04-25T13:30:16;0.17;;;0.17;;
41865;SDS011;27539;43.222;27.558;2023-04-25T13:32:41;0.30;;;0.30;;
41865;SDS011;27539;43.222;27.558;2023-04-25T13:35:08;0.50;;;0.50;;
41865;SDS011;27539;43.222;27.558;2023-04-25T13:37:35;2.92;;;1.88;;
41865;SDS011;27539;43.222;27.558;2023-04-25T13:40:02;1.63;;;1.50;;
41865;SDS011;27539;43.222;27.558;2023-04-25T13:42:32;9.25;;;2.40;;
41865;SDS011;27539;43.222;27.558;2023-04-25T13:44:58;1.70;;;0.80;;
41865;SDS011;27539;43.222;27.558;2023-04-25T13:47:25;0.95;;;0.73;;
41865;SDS011;27539;43.222;27.558;2023-04-25T13:49:51;0.35;;;0.35;;
41865;SDS011;27539;43.222;27.558;2023-04-25T13:52:16;0.60;;;0.60;;
41865;SDS011;27539;43.222;27.558;2023-04-25T13:54:42;0.32;;;0.32;;
41865;SDS011;27539;43.222;27.558;2023-04-25T13:57:07;0.47;;;0.47;;
41865;SDS011;27539;43.222;27.558;2023-04-25T13:59:33;1.45;;;0.93;;
41865;SDS011;27539;43.222;27.558;2023-04-25T14:01:58;0.50;;;0.45;;
41865;SDS011;27539;43.222;27.558;2023-04-25T14:04:24;0.40;;;0.40;;
41865;SDS011;27539;43.222;27.558;2023-04-25T14:06:50;0.20;;;0.20;;
41865;SDS011;27539;43.222;27.558;2023-04-25T14:09:16;0.30;;;0.30;;
41865;SDS011;27539;43.222;27.558;2023-04-25T14:11:42;1.25;;;0.20;;
41865;SDS011;27539;43.222;27.558;2023-04-25T14:14:07;0.28;;;0.28;;
41865;SDS011;27539;43.222;27.558;2023-04-25T14:16:33;0.33;;;0.33;;
41865;SDS011;27539;43.222;27.558;2023-04-25T14:18:59;0.20;;;0.20;;
41865;SDS011;27539;43.222;27.558;2023-04-25T14:21:25;0.35;;;0.32;;
41865;SDS011;27539;43.222;27.558;2023-04-25T14:23:52;0.38;;;0.38;;
41865;SDS011;27539;43.222;27.558;2023-04-25T14:26:17;0.70;;;0.70;;
41865;SDS011;27539;43.222;27.558;2023-04-25T14:28:43;0.20;;;0.20;;
41865;SDS011;27539;43.222;27.558;2023-04-25T14:31:09;0.20;;;0.20;;
41865;SDS011;27539;43.222;27.558;2023-04-25T14:33:34;0.30;;;0.30;;
41865;SDS011;27539;43.222;27.558;2023-04-25T14:36:00;0.30;;;0.30;;
41865;SDS011;27539;43.222;27.558;2023-04-25T14:38:25;0.20;;;0.20;;
41865;SDS011;27539;43.222;27.558;2023-04-25T14:40:51;0.10;;;0.10;;
41865;SDS011;27539;43.222;27.558;2023-04-25T14:43:19;0.20;;;0.20;;
41865;SDS011;27539;43.222;27.558;2023-04-25T14:45:44;0.47;;;0.47;;
41865;SDS011;27539;43.222;27.558;2023-04-25T14:48:10;0.57;;;0.57;;
41865;SDS011;27539;43.222;27.558;2023-04-25T14:50:36;0.20;;;0.20;;